Time;durP1;ratioP1;P1;durP2;ratioP2;P2;SDS_P1;SDS_P2;PMS_P1;PMS_P2;Temp;Humidity;BMP_temperature;BMP_pressure;BME280_temperature;BME280_humidity;BME280_pressure;Samples;Min_cycle;Max_cycle;Signal;HPM_P1;HPM_P2
2023/03/13 00:01:02;;;;;;;6.40;5.20;;;3.60;99.90;;;;;;5054746;28;20479;-52
2023/03/13 00:03:29;;;;;;;12.47;8.60;;;3.80;99.90;;;;;;5055544;28;20445;-52
2023/03/13 00:05:57;;;;;;;12.93;8.33;;;3.80;99.90;;;;;;5056723;28;20462;-53
2023/03/13 00:08:24;;;;;;;9.13;6.70;;;3.90;99.90;;;;;;5055401;28;20507;-55
2023/03/13 00:10:51;;;;;;;9.77;6.33;;;3.90;99.90;;;;;;5055536;28;20991;-52
2023/03/13 00:13:20;;;;;;;6.37;4.57;;;3.70;99.90;;;;;;5055783;28;20511;-54
2023/03/13 00:15:47;;;;;;;7.23;4.93;;;3.70;99.90;;;;;;5055808;28;20503;-54
2023/03/13 00:18:13;;;;;;;10.20;5.50;;;3.80;99.90;;;;;;5056302;28;20461;-52
2023/03/13 00:20:40;;;;;;;30.67;5.90;;;3.40;99.90;;;;;;5055069;28;20455;-54
2023/03/13 00:23:07;;;;;;;5.23;4.50;;;2.90;99.90;;;;;;5054820;28;21024;-53
2023/03/13 00:25:34;;;;;;;5.63;4.93;;;3.00;99.90;;;;;;5055411;28;20505;-52
2023/03/13 00:28:01;;;;;;;6.73;5.83;;;3.30;99.90;;;;;;5055498;28;20551;-54
2023/03/13 00:30:29;;;;;;;26.23;7.60;;;3.50;99.90;;;;;;5055336;28;20490;-53
2023/03/13 00:32:56;;;;;;;31.17;8.20;;;3.00;99.90;;;;;;5055132;28;20474;-53
2023/03/13 00:35:23;;;;;;;8.93;6.20;;;2.70;99.90;;;;;;5055601;28;20444;-55
2023/03/13 00:37:51;;;;;;;6.63;5.20;;;2.80;99.90;;;;;;5055219;28;20476;-51
2023/03/13 00:40:19;;;;;;;8.77;6.07;;;3.20;99.90;;;;;;5054679;28;20484;-54
2023/03/13 00:42:46;;;;;;;6.73;5.10;;;3.40;99.90;;;;;;5054781;28;20448;-55
2023/03/13 00:45:12;;;;;;;13.90;6.23;;;3.40;99.90;;;;;;5055369;28;20478;-53
2023/03/13 00:47:41;;;;;;;12.93;6.33;;;3.00;99.90;;;;;;5055054;28;21020;-53
2023/03/13 00:50:08;;;;;;;8.03;5.20;;;2.80;99.90;;;;;;5055362;28;20520;-52
2023/03/13 00:52:35;;;;;;;7.10;5.07;;;2.80;99.90;;;;;;5055039;28;20483;-53
2023/03/13 00:55:03;;;;;;;16.53;6.33;;;3.20;99.90;;;;;;5055040;28;20566;-55
2023/03/13 00:57:29;;;;;;;17.13;6.03;;;2.90;99.90;;;;;;5055523;28;20455;-52
2023/03/13 00:59:56;;;;;;;10.50;5.53;;;3.10;99.90;;;;;;5054916;28;20505;-57
2023/03/13 01:02:23;;;;;;;8.00;5.53;;;2.80;99.90;;;;;;5054098;28;20475;-52
2023/03/13 01:04:53;;;;;;;6.67;5.17;;;3.10;99.90;;;;;;5055216;28;20831;-52
2023/03/13 01:07:19;;;;;;;7.70;4.40;;;3.20;99.90;;;;;;5054873;28;20459;-52
2023/03/13 01:09:46;;;;;;;40.27;7.43;;;3.20;99.90;;;;;;5054842;28;20579;-54
2023/03/13 01:12:13;;;;;;;8.40;4.20;;;2.90;99.90;;;;;;5054535;28;20468;-52
2023/03/13 01:14:40;;;;;;;4.67;3.50;;;2.50;99.90;;;;;;5054139;28;20554;-52
2023/03/13 01:17:07;;;;;;;6.83;3.70;;;2.80;99.90;;;;;;5055438;28;20472;-53
2023/03/13 01:19:34;;;;;;;4.03;3.53;;;2.90;99.90;;;;;;5054832;28;20919;-52
2023/03/13 01:22:02;;;;;;;6.00;4.00;;;2.90;99.90;;;;;;5054243;28;20470;-52
2023/03/13 01:24:29;;;;;;;6.30;3.67;;;3.00;99.90;;;;;;5054874;28;20522;-53
2023/03/13 01:26:56;;;;;;;4.63;3.27;;;3.00;99.90;;;;;;5054361;28;20529;-54
2023/03/13 01:29:23;;;;;;;3.13;2.90;;;3.10;99.90;;;;;;5054193;28;20496;-56
2023/03/13 01:31:49;;;;;;;5.93;3.50;;;3.10;99.90;;;;;;5053984;28;20525;-52
2023/03/13 01:34:16;;;;;;;3.47;3.17;;;3.10;99.90;;;;;;5054920;28;20480;-54
2023/03/13 01:36:44;;;;;;;5.07;3.30;;;3.10;99.90;;;;;;5057365;28;20477;-52
2023/03/13 01:39:12;;;;;;;3.10;2.70;;;3.20;99.90;;;;;;5058582;28;21047;-52
2023/03/13 01:41:39;;;;;;;4.30;3.70;;;3.10;99.90;;;;;;5058452;28;20990;-54
2023/03/13 01:44:06;;;;;;;3.47;3.17;;;3.10;99.90;;;;;;5058175;28;20468;-52
2023/03/13 01:46:33;;;;;;;7.97;3.77;;;3.00;99.90;;;;;;5058527;28;20448;-52
2023/03/13 01:49:05;;;;;;;17.20;4.77;;;3.10;99.90;;;;;;5054513;28;20859;-52
2023/03/13 01:51:35;;;;;;;9.80;3.53;;;2.40;99.90;;;;;;5055503;28;20917;-52
2023/03/13 01:54:06;;;;;;;9.33;3.60;;;2.20;99.90;;;;;;5057615;28;20997;-52
2023/03/13 01:56:40;;;;;;;4.20;3.60;;;2.40;99.90;;;;;;5057609;28;20482;-52
2023/03/13 01:59:10;;;;;;;7.80;3.90;;;2.70;99.90;;;;;;5056976;28;20488;-52
2023/03/13 02:01:38;;;;;;;15.07;4.03;;;1.80;99.90;;;;;;5057188;28;20509;-52
2023/03/13 02:04:06;;;;;;;11.13;4.43;;;1.70;99.90;;;;;;5057360;28;20441;-52
2023/03/13 02:06:38;;;;;;;5.10;3.70;;;1.60;99.90;;;;;;5036396;28;20524;-52
2023/03/13 02:09:09;;;;;;;4.27;3.80;;;1.90;99.90;;;;;;5050760;28;20465;-52
2023/03/13 02:11:47;;;;;;;2.00;1.80;;;2.20;99.90;;;;;;5057501;28;20438;-55
2023/03/13 02:14:15;;;;;;;3.37;2.43;;;2.40;99.90;;;;;;5057757;28;20510;-53
2023/03/13 02:16:46;;;;;;;7.63;3.07;;;2.50;99.90;;;;;;5057269;28;20710;-53
2023/03/13 02:19:18;;;;;;;5.27;2.70;;;2.50;99.90;;;;;;5057779;28;20553;-53
2023/03/13 02:21:50;;;;;;;2.93;2.70;;;2.10;99.90;;;;;;5057332;28;20502;-52
2023/03/13 02:24:29;;;;;;;2.07;1.87;;;2.10;99.90;;;;;;5057538;28;20993;-53
2023/03/13 02:26:57;;;;;;;2.20;1.90;;;2.30;99.90;;;;;;5057318;28;20531;-52
2023/03/13 02:29:25;;;;;;;2.80;2.40;;;2.40;99.90;;;;;;5057132;28;20493;-52
2023/03/13 02:31:53;;;;;;;2.37;2.13;;;2.50;99.90;;;;;;5057169;28;20951;-52
2023/03/13 02:34:24;;;;;;;2.97;2.57;;;2.20;99.90;;;;;;5056308;28;20594;-53
2023/03/13 02:36:52;;;;;;;2.83;2.63;;;2.30;99.90;;;;;;5057208;28;20537;-53
2023/03/13 02:39:22;;;;;;;2.90;2.60;;;2.40;99.90;;;;;;5057214;28;20485;-52
2023/03/13 02:41:50;;;;;;;12.70;3.03;;;2.30;99.90;;;;;;5056059;28;20521;-51
2023/03/13 02:44:18;;;;;;;14.17;4.93;;;2.40;99.90;;;;;;5053472;28;20611;-52
2023/03/13 02:46:46;;;;;;;10.87;4.20;;;1.70;99.90;;;;;;5047007;28;20529;-51
2023/03/13 02:49:23;;;;;;;6.37;3.23;;;1.70;99.90;;;;;;5056245;28;20510;-55
2023/03/13 02:51:51;;;;;;;12.10;4.33;;;1.90;99.90;;;;;;5056130;28;20530;-52
2023/03/13 02:54:22;;;;;;;2.27;1.83;;;1.60;99.90;;;;;;5056487;28;20510;-52
2023/03/13 02:56:54;;;;;;;2.40;2.20;;;1.60;99.90;;;;;;5036045;28;20528;-52
2023/03/13 02:59:23;;;;;;;8.90;6.60;;;2.00;99.90;;;;;;5036479;28;20505;-51
2023/03/13 03:01:51;;;;;;;28.80;5.90;;;2.20;99.90;;;;;;5054429;28;20549;-52
2023/03/13 03:04:19;;;;;;;39.57;5.97;;;1.60;99.90;;;;;;5055379;28;20937;-52
2023/03/13 03:06:46;;;;;;;4.83;3.70;;;0.70;99.90;;;;;;5055843;28;20443;-54
2023/03/13 03:09:13;;;;;;;5.50;3.60;;;0.90;99.90;;;;;;5055670;28;20501;-52
2023/03/13 03:11:40;;;;;;;28.77;6.73;;;1.40;99.90;;;;;;5054871;28;20509;-52
2023/03/13 03:14:08;;;;;;;11.43;4.50;;;1.20;99.90;;;;;;5055934;28;20520;-53
2023/03/13 03:16:36;;;;;;;13.53;5.40;;;1.30;99.90;;;;;;5055959;28;20537;-55
2023/03/13 03:19:03;;;;;;;41.67;7.23;;;1.60;99.90;;;;;;5054800;28;20514;-52
2023/03/13 03:21:30;;;;;;;18.67;4.90;;;1.00;99.90;;;;;;5055393;28;20481;-53
2023/03/13 03:23:57;;;;;;;18.60;4.77;;;0.90;99.90;;;;;;5055223;28;20494;-55
2023/03/13 03:26:24;;;;;;;7.50;3.40;;;1.00;99.90;;;;;;5055138;28;20533;-51
2023/03/13 03:28:51;;;;;;;3.80;3.33;;;1.30;99.90;;;;;;5055004;28;20502;-51
2023/03/13 03:31:18;;;;;;;16.80;4.77;;;1.50;99.90;;;;;;5053926;28;20480;-53
2023/03/13 03:33:46;;;;;;;13.57;4.07;;;1.30;99.90;;;;;;5055275;28;20447;-52
2023/03/13 03:36:15;;;;;;;6.87;3.40;;;1.10;99.90;;;;;;5037517;28;20515;-52
2023/03/13 03:38:42;;;;;;;3.37;2.70;;;1.50;99.90;;;;;;5053778;28;20873;-53
2023/03/13 03:41:10;;;;;;;3.23;2.50;;;1.70;99.90;;;;;;5054457;28;20477;-55
2023/03/13 03:43:37;;;;;;;3.30;2.83;;;1.70;99.90;;;;;;5052940;28;20527;-52
2023/03/13 03:46:04;;;;;;;4.40;2.73;;;1.80;99.90;;;;;;5053393;28;20526;-56
2023/03/13 03:48:31;;;;;;;3.50;3.20;;;1.80;99.90;;;;;;5052775;28;21067;-52
2023/03/13 03:51:00;;;;;;;4.97;3.10;;;1.80;99.90;;;;;;5052638;28;21024;-56
2023/03/13 03:53:27;;;;;;;4.77;3.87;;;1.80;99.90;;;;;;5053373;28;20470;-52
2023/03/13 03:55:55;;;;;;;3.50;2.90;;;1.80;99.90;;;;;;5053099;28;20675;-52
2023/03/13 03:58:22;;;;;;;3.27;2.00;;;1.80;99.90;;;;;;5054446;28;20498;-52
2023/03/13 04:00:49;;;;;;;3.27;2.33;;;1.70;99.90;;;;;;5054159;28;20469;-54
2023/03/13 04:03:16;;;;;;;3.63;3.17;;;1.80;99.90;;;;;;5054267;28;20456;-52
2023/03/13 04:05:44;;;;;;;3.53;2.60;;;1.90;99.90;;;;;;5055058;28;20456;-52
2023/03/13 04:08:12;;;;;;;6.40;3.27;;;2.00;99.90;;;;;;5054150;28;20572;-51
2023/03/13 04:10:39;;;;;;;7.40;3.60;;;1.90;99.90;;;;;;5054869;28;20534;-52
2023/03/13 04:13:06;;;;;;;36.07;6.40;;;1.90;99.90;;;;;;5053666;28;20478;-53
2023/03/13 04:15:33;;;;;;;23.20;5.37;;;1.00;99.90;;;;;;5053882;28;20568;-52
2023/03/13 04:18:00;;;;;;;5.93;3.50;;;0.80;99.90;;;;;;5054078;28;20549;-52
2023/03/13 04:20:27;;;;;;;18.20;6.40;;;1.10;99.90;;;;;;5054327;28;20468;-52
2023/03/13 04:22:54;;;;;;;24.97;5.87;;;0.90;99.90;;;;;;5053631;28;20451;-52
2023/03/13 04:25:22;;;;;;;29.07;6.27;;;0.60;99.90;;;;;;5053185;28;20529;-52
2023/03/13 04:27:50;;;;;;;6.80;4.90;;;0.40;99.90;;;;;;5051120;28;20473;-53
2023/03/13 04:30:17;;;;;;;13.47;5.20;;;0.40;99.90;;;;;;5052822;28;20871;-52
2023/03/13 04:32:44;;;;;;;16.97;5.00;;;0.90;99.90;;;;;;5053292;28;20533;-51
2023/03/13 04:35:11;;;;;;;4.83;3.37;;;0.50;99.90;;;;;;5053104;28;20509;-52
2023/03/13 04:37:38;;;;;;;4.20;3.40;;;0.60;99.90;;;;;;5052440;28;20532;-53
2023/03/13 04:40:06;;;;;;;4.20;3.70;;;1.00;99.90;;;;;;5052018;28;20918;-54
2023/03/13 04:42:34;;;;;;;5.87;3.60;;;1.20;99.90;;;;;;5052590;28;20658;-53
2023/03/13 04:45:01;;;;;;;13.03;3.87;;;1.40;99.90;;;;;;5052511;28;20470;-52
2023/03/13 04:47:28;;;;;;;3.30;2.80;;;0.80;99.90;;;;;;5050935;28;20549;-53
2023/03/13 04:49:55;;;;;;;3.67;3.27;;;1.10;99.90;;;;;;5051880;28;20462;-52
2023/03/13 04:52:22;;;;;;;4.77;3.37;;;1.40;99.90;;;;;;5053355;28;20530;-53
2023/03/13 04:54:50;;;;;;;4.57;3.50;;;1.60;99.90;;;;;;5089031;23;20508;-81
2023/03/13 04:57:17;;;;;;;4.40;2.83;;;1.80;99.90;;;;;;5049271;28;20446;-79
2023/03/13 04:59:45;;;;;;;4.63;4.23;;;1.70;99.90;;;;;;5063096;28;20466;-79
2023/03/13 05:02:13;;;;;;;6.67;4.00;;;1.80;99.90;;;;;;5062825;28;20485;-80
2023/03/13 05:04:40;;;;;;;5.50;3.87;;;1.80;99.90;;;;;;5058406;28;20550;-80
2023/03/13 05:07:06;;;;;;;4.70;3.90;;;2.00;99.90;;;;;;5059679;28;20544;-79
2023/03/13 05:09:33;;;;;;;8.80;6.50;;;2.10;99.90;;;;;;5058352;28;20517;-79
2023/03/13 05:12:00;;;;;;;6.40;5.13;;;2.00;99.90;;;;;;5062805;28;20969;-79
2023/03/13 05:14:27;;;;;;;4.13;3.73;;;2.10;99.90;;;;;;5062185;28;20562;-79
2023/03/13 05:16:55;;;;;;;4.80;3.67;;;2.10;99.90;;;;;;5054764;28;21043;-78
2023/03/13 05:19:22;;;;;;;5.23;3.70;;;2.10;99.90;;;;;;5070126;28;20535;-80
2023/03/13 05:21:49;;;;;;;5.67;5.17;;;2.20;99.90;;;;;;5069818;28;20469;-80
2023/03/13 05:24:16;;;;;;;9.30;8.57;;;2.10;99.90;;;;;;5069594;28;20476;-78
2023/03/13 05:26:43;;;;;;;4.17;3.87;;;2.10;99.90;;;;;;5072238;28;20500;-78
2023/03/13 05:29:10;;;;;;;5.23;4.63;;;2.10;99.90;;;;;;5075940;28;20477;-81
2023/03/13 05:31:37;;;;;;;5.60;5.10;;;2.20;99.90;;;;;;5077156;28;20479;-81
2023/03/13 05:34:05;;;;;;;10.07;5.93;;;1.80;99.90;;;;;;5077282;28;20454;-82
2023/03/13 05:36:32;;;;;;;5.63;4.87;;;1.00;99.90;;;;;;5075022;28;20928;-80
2023/03/13 05:38:59;;;;;;;6.60;5.27;;;0.90;99.90;;;;;;5062340;28;20530;-79
2023/03/13 05:41:26;;;;;;;9.10;5.47;;;0.90;99.90;;;;;;5065943;28;20480;-79
2023/03/13 05:43:53;;;;;;;6.23;5.40;;;1.10;99.90;;;;;;5061131;28;20892;-79
2023/03/13 05:46:20;;;;;;;5.70;4.70;;;1.10;99.90;;;;;;5063306;28;20497;-80
2023/03/13 05:48:47;;;;;;;5.30;4.00;;;1.40;99.90;;;;;;5065274;28;20957;-79
2023/03/13 05:51:15;;;;;;;6.80;5.07;;;1.70;99.90;;;;;;5073454;28;20457;-81
2023/03/13 05:53:42;;;;;;;9.10;5.37;;;1.90;99.90;;;;;;5073329;28;20488;-80
2023/03/13 05:56:09;;;;;;;7.17;5.90;;;2.00;99.90;;;;;;5071986;28;20481;-78
2023/03/13 05:58:36;;;;;;;8.87;5.90;;;2.10;99.90;;;;;;5074307;28;20536;-79
2023/03/13 06:01:07;;;;;;;5.77;4.87;;;1.70;99.90;;;;;;5075559;28;20500;-83
2023/03/13 06:03:34;;;;;;;5.10;4.60;;;1.20;99.90;;;;;;5077808;28;20442;-80
2023/03/13 06:06:01;;;;;;;8.03;6.07;;;1.40;99.90;;;;;;5064302;28;20464;-79
2023/03/13 06:08:31;;;;;;;9.47;7.90;;;1.80;99.90;;;;;;5066370;28;20562;-79
2023/03/13 06:10:59;;;;;;;6.77;6.07;;;1.60;99.90;;;;;;5066083;28;20487;-79
2023/03/13 06:13:26;;;;;;;7.47;6.20;;;1.40;99.90;;;;;;5063180;28;20446;-79
2023/03/13 06:15:53;;;;;;;7.50;5.80;;;1.70;99.90;;;;;;5065208;28;21072;-79
2023/03/13 06:18:20;;;;;;;14.10;11.80;;;1.90;99.90;;;;;;5065175;28;20552;-80
2023/03/13 06:20:48;;;;;;;6.77;6.13;;;2.10;99.90;;;;;;5068587;28;20985;-81
2023/03/13 06:23:15;;;;;;;6.80;5.73;;;1.70;99.90;;;;;;5062060;28;20471;-80
2023/03/13 06:25:47;;;;;;;5.90;5.30;;;2.00;99.90;;;;;;5062350;28;20462;-80
2023/03/13 06:28:14;;;;;;;7.93;5.20;;;2.20;99.90;;;;;;5061013;28;20508;-80
2023/03/13 06:30:41;;;;;;;10.40;7.00;;;2.20;99.90;;;;;;5061604;28;20434;-80
2023/03/13 06:33:08;;;;;;;10.57;9.20;;;2.10;99.90;;;;;;5063294;28;20528;-81
2023/03/13 06:35:35;;;;;;;8.23;6.73;;;1.50;99.90;;;;;;5066525;28;20567;-81
2023/03/13 06:38:02;;;;;;;10.53;7.40;;;1.50;99.90;;;;;;5065666;28;20527;-80
2023/03/13 06:40:29;;;;;;;7.53;6.77;;;1.90;99.90;;;;;;5053086;28;20561;-80
2023/03/13 06:42:57;;;;;;;7.83;5.53;;;2.20;99.90;;;;;;5053053;28;20530;-81
2023/03/13 06:45:24;;;;;;;7.17;6.47;;;2.30;99.90;;;;;;5053320;28;20521;-81
2023/03/13 06:47:51;;;;;;;6.40;5.33;;;2.50;99.90;;;;;;5053169;28;20550;-80
2023/03/13 06:50:18;;;;;;;10.50;9.23;;;2.60;99.90;;;;;;5053183;28;20484;-80
2023/03/13 06:52:46;;;;;;;9.40;7.20;;;2.70;99.90;;;;;;5054214;28;20443;-80
2023/03/13 06:55:13;;;;;;;5.43;4.80;;;2.80;99.90;;;;;;5052133;28;20911;-80
2023/03/13 06:57:40;;;;;;;6.63;4.50;;;2.80;99.90;;;;;;5054107;28;20491;-81
2023/03/13 07:00:11;;;;;;;6.07;4.80;;;2.70;99.90;;;;;;5053444;28;20448;-80
2023/03/13 07:02:39;;;;;;;7.30;5.30;;;2.50;99.90;;;;;;5035016;28;20818;-81
2023/03/13 07:05:07;;;;;;;6.47;5.77;;;2.60;99.90;;;;;;5053883;28;20951;-80
2023/03/13 07:07:34;;;;;;;5.87;5.37;;;2.60;99.90;;;;;;5051376;28;20494;-79
2023/03/13 07:10:02;;;;;;;6.70;5.90;;;2.80;99.90;;;;;;5049780;28;20540;-80
2023/03/13 07:12:29;;;;;;;6.30;5.67;;;2.70;99.90;;;;;;5051347;28;20534;-78
2023/03/13 07:14:55;;;;;;;6.60;6.00;;;2.80;99.90;;;;;;5050039;28;20535;-78
2023/03/13 07:17:24;;;;;;;6.23;5.63;;;2.40;99.90;;;;;;5050670;28;20538;-78
2023/03/13 07:19:51;;;;;;;4.73;4.20;;;2.20;99.90;;;;;;5049179;28;20487;-78
2023/03/13 07:22:18;;;;;;;12.43;6.03;;;2.30;99.90;;;;;;5050105;28;20499;-79
2023/03/13 07:24:45;;;;;;;5.87;4.90;;;2.40;99.90;;;;;;5050925;28;20730;-78
2023/03/13 07:27:12;;;;;;;4.77;4.00;;;2.70;99.90;;;;;;5070102;28;20541;-78
2023/03/13 07:29:39;;;;;;;4.40;4.00;;;2.90;99.90;;;;;;5070110;28;20507;-78
2023/03/13 07:32:07;;;;;;;4.27;3.87;;;3.10;99.90;;;;;;5070459;28;20527;-79
2023/03/13 07:34:35;;;;;;;5.33;4.70;;;3.20;99.90;;;;;;5069932;28;20528;-78
2023/03/13 07:37:02;;;;;;;4.87;4.40;;;3.30;99.90;;;;;;5073758;28;20995;-80
2023/03/13 07:39:29;;;;;;;5.40;4.50;;;3.30;99.90;;;;;;5073941;28;20483;-81
2023/03/13 07:41:56;;;;;;;6.07;4.80;;;3.30;99.90;;;;;;5072680;28;20886;-81
2023/03/13 07:44:23;;;;;;;5.10;4.43;;;3.40;99.90;;;;;;5073428;28;20478;-80
2023/03/13 07:46:49;;;;;;;7.60;5.33;;;3.30;99.90;;;;;;5072946;28;20512;-80
2023/03/13 07:49:16;;;;;;;6.43;5.63;;;3.40;99.90;;;;;;5073696;28;20878;-80
2023/03/13 07:51:46;;;;;;;5.77;4.87;;;3.30;99.90;;;;;;5074401;28;20505;-81
2023/03/13 07:54:14;;;;;;;6.20;5.60;;;3.20;99.90;;;;;;5073442;28;20458;-81
2023/03/13 07:56:41;;;;;;;6.70;5.80;;;3.10;99.90;;;;;;5072811;28;20474;-80
2023/03/13 07:59:08;;;;;;;5.70;5.20;;;3.20;99.90;;;;;;5072639;28;20507;-80
2023/03/13 08:01:35;;;;;;;5.53;5.00;;;3.40;99.90;;;;;;5073406;28;20941;-80
2023/03/13 08:04:02;;;;;;;5.37;4.40;;;3.50;99.90;;;;;;5072683;28;20457;-81
2023/03/13 08:06:31;;;;;;;6.30;4.30;;;3.40;99.90;;;;;;5073793;28;20470;-80
2023/03/13 08:09:00;;;;;;;5.90;4.40;;;3.30;99.90;;;;;;5072941;28;20442;-80
2023/03/13 08:11:28;;;;;;;4.03;3.73;;;3.50;99.90;;;;;;5073168;28;20474;-80
2023/03/13 08:13:56;;;;;;;5.93;4.30;;;3.70;99.90;;;;;;5072492;28;20472;-81
2023/03/13 08:16:25;;;;;;;17.47;13.63;;;3.70;99.90;;;;;;5073159;28;20564;-81
2023/03/13 08:18:55;;;;;;;24.47;17.87;;;3.80;99.90;;;;;;5072275;28;20963;-81
2023/03/13 08:21:23;;;;;;;5.60;4.50;;;3.90;99.90;;;;;;5072879;28;20529;-80
2023/03/13 08:23:54;;;;;;;4.60;3.97;;;3.80;99.90;;;;;;5073104;28;20478;-80
2023/03/13 08:26:24;;;;;;;17.10;10.23;;;3.90;99.90;;;;;;5073812;28;20549;-81
2023/03/13 08:28:54;;;;;;;8.23;4.50;;;3.90;99.90;;;;;;5071790;28;20450;-81
2023/03/13 08:31:23;;;;;;;6.17;2.57;;;4.10;99.90;;;;;;5072985;28;20433;-81
2023/03/13 08:33:50;;;;;;;4.80;4.17;;;3.90;99.90;;;;;;5072282;28;20499;-80
2023/03/13 08:36:19;;;;;;;5.13;4.63;;;3.70;99.90;;;;;;5072925;28;20574;-80
2023/03/13 08:38:47;;;;;;;4.47;3.97;;;3.40;99.90;;;;;;5073280;28;20628;-81
2023/03/13 08:41:16;;;;;;;5.90;4.90;;;3.50;99.90;;;;;;5073458;28;20541;-80
2023/03/13 08:43:45;;;;;;;3.87;3.47;;;3.80;99.90;;;;;;5072993;28;20442;-80
2023/03/13 08:46:12;;;;;;;5.03;3.10;;;4.00;99.90;;;;;;5073138;28;20441;-81
2023/03/13 08:48:39;;;;;;;3.80;3.50;;;3.80;99.90;;;;;;5072713;28;20519;-80
2023/03/13 08:51:08;;;;;;;5.13;4.17;;;3.90;99.90;;;;;;5072501;28;20531;-81
2023/03/13 08:53:36;;;;;;;4.23;3.80;;;4.00;99.90;;;;;;5072390;28;20513;-81
2023/03/13 08:56:04;;;;;;;2.47;2.27;;;4.20;99.90;;;;;;5072523;28;20567;-81
2023/03/13 08:58:31;;;;;;;2.20;2.00;;;4.20;99.90;;;;;;5072526;28;20443;-80
2023/03/13 09:01:04;;;;;;;3.77;2.70;;;4.20;99.90;;;;;;5072361;28;20530;-81
2023/03/13 09:03:31;;;;;;;2.63;1.67;;;4.20;99.90;;;;;;5072010;28;20441;-81
2023/03/13 09:05:58;;;;;;;2.00;1.80;;;4.10;99.90;;;;;;5072423;28;21217;-80
2023/03/13 09:08:26;;;;;;;2.23;1.80;;;4.30;99.90;;;;;;5071950;28;20478;-80
2023/03/13 09:10:55;;;;;;;2.60;2.40;;;4.30;99.90;;;;;;5072595;28;20450;-80
2023/03/13 09:13:22;;;;;;;2.30;1.97;;;4.30;99.90;;;;;;5073146;28;20478;-81
2023/03/13 09:15:54;;;;;;;2.00;1.80;;;4.40;99.90;;;;;;5073005;28;20564;-81
2023/03/13 09:18:23;;;;;;;3.27;2.33;;;4.60;99.90;;;;;;5072475;28;20443;-81
2023/03/13 09:20:50;;;;;;;3.23;2.63;;;4.70;99.90;;;;;;5071973;28;20498;-80
2023/03/13 09:23:18;;;;;;;3.13;2.30;;;4.70;99.90;;;;;;5073132;28;20471;-81
2023/03/13 09:25:46;;;;;;;2.90;2.40;;;4.80;99.90;;;;;;5072561;28;20489;-81
2023/03/13 09:28:12;;;;;;;2.23;1.90;;;5.00;99.90;;;;;;5071906;28;20492;-81
2023/03/13 09:30:39;;;;;;;3.67;2.07;;;5.10;99.90;;;;;;5072741;28;20999;-81
2023/03/13 09:33:07;;;;;;;3.27;1.87;;;5.40;99.90;;;;;;5072468;28;20510;-80
2023/03/13 09:35:35;;;;;;;2.23;2.00;;;5.20;99.90;;;;;;5071860;28;20508;-80
2023/03/13 09:38:02;;;;;;;3.43;1.93;;;5.10;99.90;;;;;;5070746;28;20503;-81
2023/03/13 09:40:29;;;;;;;3.20;2.20;;;5.10;99.90;;;;;;5071112;28;20531;-80
2023/03/13 09:42:58;;;;;;;3.00;2.30;;;5.30;99.90;;;;;;5071289;28;20530;-81
2023/03/13 09:45:32;;;;;;;2.33;2.03;;;5.30;99.90;;;;;;5072041;28;20535;-80
2023/03/13 09:48:04;;;;;;;4.93;2.67;;;5.30;99.90;;;;;;5071013;28;20872;-81
2023/03/13 09:50:36;;;;;;;5.90;1.97;;;5.40;99.90;;;;;;5071265;28;20531;-80
2023/03/13 09:53:13;;;;;;;4.40;2.40;;;5.30;99.90;;;;;;5070985;28;20992;-80
2023/03/13 09:55:43;;;;;;;3.17;2.03;;;5.20;99.90;;;;;;5072175;28;20446;-80
2023/03/13 09:58:15;;;;;;;2.73;2.17;;;5.30;99.90;;;;;;5074779;28;20496;-80
2023/03/13 10:00:46;;;;;;;2.90;2.57;;;5.50;99.90;;;;;;5078160;28;20479;-81
2023/03/13 10:03:18;;;;;;;2.90;2.00;;;5.60;99.90;;;;;;5084292;28;20502;-80
2023/03/13 10:05:49;;;;;;;2.40;2.20;;;5.70;99.90;;;;;;5073248;28;20940;-80
2023/03/13 10:08:19;;;;;;;2.40;2.20;;;5.70;99.90;;;;;;5073558;28;20981;-80
2023/03/13 10:10:51;;;;;;;2.57;2.03;;;5.70;99.90;;;;;;5073266;28;20481;-81
2023/03/13 10:13:23;;;;;;;2.90;2.70;;;5.70;99.90;;;;;;5073837;28;20488;-80
2023/03/13 10:15:55;;;;;;;3.30;2.43;;;5.80;99.90;;;;;;5073110;28;20489;-80
2023/03/13 10:18:23;;;;;;;2.80;2.50;;;6.00;99.90;;;;;;5073778;28;20508;-81
2023/03/13 10:20:53;;;;;;;3.13;2.43;;;6.00;99.90;;;;;;5073844;28;20447;-80
2023/03/13 10:23:27;;;;;;;3.83;2.50;;;6.10;99.90;;;;;;5073924;28;20738;-80
2023/03/13 10:25:54;;;;;;;3.63;2.70;;;6.10;99.90;;;;;;5073635;28;20439;-80
2023/03/13 10:28:21;;;;;;;2.93;2.40;;;6.10;99.90;;;;;;5073178;28;20469;-80
2023/03/13 10:30:51;;;;;;;4.23;2.37;;;6.20;99.90;;;;;;5073665;28;20823;-79
2023/03/13 10:33:29;;;;;;;2.70;2.37;;;6.20;99.90;;;;;;5073465;28;20432;-80
2023/03/13 10:36:07;;;;;;;3.20;2.03;;;6.30;99.90;;;;;;5073064;28;20445;-80
2023/03/13 10:38:45;;;;;;;2.80;1.67;;;6.20;99.90;;;;;;5073423;28;21008;-80
2023/03/13 10:41:23;;;;;;;1.97;1.50;;;6.20;99.90;;;;;;5073287;28;20444;-79
2023/03/13 10:43:52;;;;;;;2.13;1.40;;;6.20;99.90;;;;;;5073406;28;20878;-80
2023/03/13 10:46:27;;;;;;;2.20;1.70;;;6.40;99.90;;;;;;5073331;28;20548;-80
2023/03/13 10:48:55;;;;;;;3.23;2.60;;;6.60;99.90;;;;;;5073525;28;20590;-80
2023/03/13 10:51:29;;;;;;;5.37;1.97;;;7.00;99.90;;;;;;5073315;28;20951;-80
2023/03/13 10:53:56;;;;;;;2.40;2.20;;;7.00;99.90;;;;;;5087567;22;20444;-49
2023/03/13 10:56:29;;;;;;;26.03;19.57;;;7.00;99.90;;;;;;5052993;28;20505;-49
2023/03/13 10:58:56;;;;;;;10.87;7.60;;;7.20;99.90;;;;;;5052486;28;20533;-46
2023/03/13 11:01:25;;;;;;;12.43;7.20;;;7.20;99.90;;;;;;5043255;28;20493;-49
2023/03/13 11:03:54;;;;;;;7.30;5.07;;;7.40;99.90;;;;;;5033159;28;20552;-50
2023/03/13 11:06:28;;;;;;;11.30;6.63;;;7.50;99.90;;;;;;5056291;28;20469;-49
2023/03/13 11:09:14;;;;;;;5.40;3.97;;;7.60;99.90;;;;;;5072265;28;20535;-50
2023/03/13 11:11:46;;;;;;;4.90;2.10;;;7.60;99.90;;;;;;5071793;28;20552;-48
2023/03/13 11:14:16;;;;;;;5.37;2.30;;;7.70;99.90;;;;;;5072692;28;20539;-49
2023/03/13 11:16:48;;;;;;;2.20;2.00;;;7.80;99.90;;;;;;5072262;28;20562;-51
2023/03/13 11:19:41;;;;;;;3.10;2.00;;;7.90;99.90;;;;;;5072760;28;20456;-51
2023/03/13 11:22:22;;;;;;;2.13;1.93;;;7.80;99.90;;;;;;5072538;28;20441;-49
2023/03/13 11:24:58;;;;;;;1.57;1.47;;;7.80;99.90;;;;;;5072795;28;20540;-49
2023/03/13 11:27:29;;;;;;;3.33;2.23;;;7.90;99.90;;;;;;5072049;28;20527;-49
2023/03/13 11:30:16;;;;;;;2.77;1.90;;;8.10;99.90;;;;;;5071441;28;20473;-49
2023/03/13 11:32:46;;;;;;;2.03;1.63;;;8.30;99.90;;;;;;5071052;28;20453;-51
2023/03/13 11:35:21;;;;;;;3.00;2.70;;;8.20;99.90;;;;;;5071670;28;20472;-50
2023/03/13 11:37:55;;;;;;;3.10;2.13;;;8.20;99.90;;;;;;5060431;28;21079;-50
2023/03/13 11:40:28;;;;;;;4.63;2.10;;;8.40;99.90;;;;;;5041467;28;20481;-51
2023/03/13 11:43:25;;;;;;;2.90;2.37;;;8.70;99.90;;;;;;5039525;28;20987;-49
2023/03/13 11:46:14;;;;;;;3.13;2.23;;;8.60;99.90;;;;;;5040399;28;20517;-50
2023/03/13 11:48:58;;;;;;;4.33;2.93;;;8.60;99.90;;;;;;5031566;28;20474;-48
2023/03/13 11:51:35;;;;;;;3.50;2.63;;;8.60;99.90;;;;;;5031504;28;20877;-48
2023/03/13 11:54:23;;;;;;;3.50;1.97;;;8.80;99.90;;;;;;5031792;28;20474;-49
2023/03/13 11:56:55;;;;;;;3.20;1.97;;;9.00;99.90;;;;;;5031882;28;20577;-50
2023/03/13 11:59:31;;;;;;;2.73;2.43;;;8.90;99.90;;;;;;5031332;28;20524;-48
2023/03/13 12:02:03;;;;;;;4.33;2.80;;;8.90;99.90;;;;;;5031352;28;20490;-49
2023/03/13 12:04:36;;;;;;;5.20;2.67;;;9.20;99.90;;;;;;5032106;28;20524;-49
2023/03/13 12:07:07;;;;;;;4.37;1.90;;;9.30;99.90;;;;;;5031605;28;20447;-49
2023/03/13 12:09:42;;;;;;;1.83;1.50;;;9.70;99.90;;;;;;5031664;28;20940;-49
2023/03/13 12:12:18;;;;;;;2.53;2.00;;;9.80;99.90;;;;;;5031021;28;20516;-49
2023/03/13 12:14:49;;;;;;;3.67;2.30;;;9.80;99.90;;;;;;5030286;28;20541;-48
2023/03/13 12:17:26;;;;;;;2.63;1.80;;;9.80;99.90;;;;;;5028779;28;20930;-50
2023/03/13 12:19:59;;;;;;;2.33;1.90;;;9.90;99.90;;;;;;5030753;28;20984;-50
2023/03/13 12:22:32;;;;;;;3.23;2.10;;;10.00;99.90;;;;;;5031263;28;20550;-51
2023/03/13 12:25:05;;;;;;;4.53;2.60;;;10.20;99.90;;;;;;5031038;28;20557;-49
2023/03/13 12:27:36;;;;;;;2.80;2.07;;;10.10;99.90;;;;;;5031125;28;20534;-48
2023/03/13 12:30:14;;;;;;;3.50;2.70;;;10.40;99.90;;;;;;5031668;28;20522;-48
2023/03/13 12:32:48;;;;;;;2.70;2.43;;;10.30;99.90;;;;;;5030439;28;21032;-48
2023/03/13 12:35:19;;;;;;;2.63;2.23;;;10.40;99.90;;;;;;5031541;28;20474;-49
2023/03/13 12:37:53;;;;;;;4.90;3.47;;;10.50;99.90;;;;;;5030653;28;20509;-48
2023/03/13 12:40:29;;;;;;;3.00;2.70;;;10.60;99.90;;;;;;5031398;28;20534;-49
2023/03/13 12:43:04;;;;;;;3.60;3.00;;;10.80;99.90;;;;;;5030682;28;20941;-49
2023/03/13 12:45:33;;;;;;;4.17;2.37;;;11.00;99.90;;;;;;5031250;28;20825;-48
2023/03/13 12:48:22;;;;;;;2.97;2.60;;;11.00;99.90;;;;;;5031280;28;20526;-48
2023/03/13 12:51:04;;;;;;;3.20;2.70;;;11.40;99.90;;;;;;5030960;28;20484;-48
2023/03/13 12:53:57;;;;;;;4.17;2.77;;;11.20;99.90;;;;;;5031226;28;20549;-48
2023/03/13 12:56:47;;;;;;;5.77;2.17;;;10.90;99.90;;;;;;5030624;28;20533;-50
2023/03/13 12:59:19;;;;;;;4.23;2.40;;;10.90;99.90;;;;;;5030827;28;20445;-49
2023/03/13 13:01:50;;;;;;;6.97;3.10;;;10.90;99.90;;;;;;5030646;28;20485;-48
2023/03/13 13:04:19;;;;;;;3.13;2.83;;;10.80;99.90;;;;;;5030228;28;20508;-48
2023/03/13 13:07:01;;;;;;;4.30;2.50;;;10.90;99.90;;;;;;5030813;28;20959;-49